Time;durP1;ratioP1;P1;durP2;ratioP2;P2;SDS_P1;SDS_P2;PMS_P1;PMS_P2;Temp;Humidity;BMP_temperature;BMP_pressure;BME280_temperature;BME280_humidity;BME280_pressure;Samples;Min_cycle;Max_cycle;Signal;HPM_P1;HPM_P2
2022/01/29 00:01:16;;;;;;;41.13;19.92;;;;;;;4.46;93.39;102008.28;4983997;28;20603;-82
2022/01/29 00:03:42;;;;;;;42.55;22.95;;;;;;;4.44;93.84;102007.31;4980293;28;20070;-84
2022/01/29 00:06:11;;;;;;;37.83;20.63;;;;;;;4.46;94.19;101999.63;4983532;28;20054;-83
2022/01/29 00:08:37;;;;;;;50.30;25.00;;;;;;;4.48;94.34;101997.94;4980190;28;20042;-85
2022/01/29 00:11:10;;;;;;;44.92;22.95;;;;;;;4.46;94.45;101992.72;4999269;28;20401;-84
2022/01/29 00:13:37;;;;;;;43.75;22.50;;;;;;;4.50;94.69;101996.31;4966272;28;21104;-85
2022/01/29 00:16:12;;;;;;;45.90;23.55;;;;;;;4.49;94.83;101980.69;4973937;28;20085;-86
2022/01/29 00:18:59;;;;;;;50.72;24.00;;;;;;;4.49;95.45;101978.97;4980186;28;20531;-85
2022/01/29 00:21:26;;;;;;;43.08;23.30;;;;;;;4.51;95.47;101960.88;4992734;28;20056;-85
2022/01/29 00:23:53;;;;;;;47.75;23.73;;;;;;;4.51;95.39;101961.78;4997027;28;20049;-84
2022/01/29 00:26:22;;;;;;;44.67;22.67;;;;;;;4.52;95.78;101960.06;5001558;28;20053;-84
2022/01/29 00:28:51;;;;;;;52.67;23.73;;;;;;;4.53;95.80;101948.88;4945760;28;20089;-83
2022/01/29 00:31:34;;;;;;;48.10;21.67;;;;;;;4.51;95.55;101959.19;4982957;28;20061;-82
2022/01/29 00:34:04;;;;;;;42.80;21.70;;;;;;;4.53;96.17;101944.53;4992759;28;20052;-83
2022/01/29 00:39:48;;;;;;;43.90;22.98;;;;;;;4.56;96.05;101946.38;4998601;28;20026;-84
2022/01/29 00:45:00;;;;;;;43.28;22.77;;;;;;;4.56;95.97;101934.31;5010753;28;20073;-82
2022/01/29 00:53:31;;;;;;;38.70;21.92;;;;;;;4.61;95.75;101911.97;5014647;28;20049;-84
2022/01/29 00:55:58;;;;;;;44.20;24.17;;;;;;;4.62;95.71;101918.06;4985090;28;20041;-84
2022/01/29 01:01:06;;;;;;;45.95;23.42;;;;;;;4.68;95.33;101902.75;4978197;28;20049;-84
2022/01/29 01:03:35;;;;;;;47.65;23.40;;;;;;;4.67;95.67;101905.25;5022541;28;20048;-85
2022/01/29 01:06:03;;;;;;;45.35;23.67;;;;;;;4.67;95.12;101892.28;4973727;28;20064;-84
2022/01/29 01:08:34;;;;;;;41.88;23.77;;;;;;;4.67;95.08;101877.63;4993808;28;20054;-82
2022/01/29 01:11:02;;;;;;;44.88;22.30;;;;;;;4.67;95.32;101888.00;4971451;28;20054;-85
2022/01/29 01:13:29;;;;;;;51.47;23.02;;;;;;;4.69;95.57;101872.47;4993350;28;20125;-84
2022/01/29 01:15:56;;;;;;;43.50;21.90;;;;;;;4.72;94.95;101872.56;4980888;28;20583;-84
2022/01/29 01:18:23;;;;;;;44.78;22.90;;;;;;;4.73;95.27;101871.75;4992058;28;20054;-86
2022/01/29 01:20:50;;;;;;;43.00;22.10;;;;;;;4.75;94.95;101865.78;4977811;28;20037;-81
2022/01/29 01:23:18;;;;;;;41.92;22.52;;;;;;;4.78;94.65;101872.78;4969637;28;20069;-84
2022/01/29 01:25:45;;;;;;;38.25;20.27;;;;;;;4.79;94.51;101880.63;4964785;28;20050;-83
2022/01/29 01:28:12;;;;;;;46.97;22.83;;;;;;;4.85;94.09;101874.78;4956633;28;20763;-82
2022/01/29 01:30:39;;;;;;;43.10;21.85;;;;;;;4.87;94.08;101865.31;4959448;28;20051;-85
2022/01/29 01:33:13;;;;;;;39.88;22.67;;;;;;;4.87;94.45;101869.66;4940810;28;20608;-83
2022/01/29 01:35:47;;;;;;;38.88;20.65;;;;;;;4.86;94.21;101850.56;4943109;28;20112;-84
2022/01/29 01:38:18;;;;;;;38.28;21.83;;;;;;;4.89;94.20;101855.00;4957450;28;20067;-85
2022/01/29 01:40:50;;;;;;;39.83;21.27;;;;;;;4.91;94.46;101843.84;4951707;28;20074;-85
2022/01/29 01:46:02;;;;;;;39.42;21.40;;;;;;;4.90;94.58;101823.03;4956858;28;21049;-83
2022/01/29 01:48:30;;;;;;;39.60;20.30;;;;;;;4.90;94.90;101826.53;4959908;28;20054;-85
2022/01/29 01:50:59;;;;;;;38.28;21.38;;;;;;;4.89;95.13;101816.97;4943179;28;20050;-85
2022/01/29 01:53:26;;;;;;;36.80;19.92;;;;;;;4.89;95.21;101810.88;4930920;28;20089;-82
2022/01/29 01:55:53;;;;;;;43.50;22.70;;;;;;;4.88;95.73;101801.34;4953110;28;20047;-83
2022/01/29 01:58:22;;;;;;;40.40;23.38;;;;;;;4.89;95.47;101800.50;4936400;28;20070;-86
2022/01/29 02:01:03;;;;;;;38.88;20.85;;;;;;;4.89;95.71;101796.22;4932048;28;20050;-84
2022/01/29 02:03:29;;;;;;;39.05;20.65;;;;;;;4.89;96.12;101791.03;4955121;28;20428;-85
2022/01/29 02:06:00;;;;;;;46.38;21.83;;;;;;;4.87;96.42;101779.69;4961303;28;20043;-84
2022/01/29 02:08:32;;;;;;;40.72;21.70;;;;;;;4.86;96.67;101775.34;4942534;28;20470;-86
2022/01/29 02:11:04;;;;;;;44.58;22.98;;;;;;;4.85;96.70;101775.28;4961061;28;20527;-84
2022/01/29 02:13:31;;;;;;;39.45;21.17;;;;;;;4.87;96.53;101774.50;4961122;28;20113;-84
2022/01/29 02:18:40;;;;;;;42.97;22.92;;;;;;;4.90;96.85;101766.84;4964235;28;20042;-83
2022/01/29 02:21:07;;;;;;;41.72;21.17;;;;;;;4.88;97.35;101754.66;4945462;28;20059;-83
2022/01/29 02:23:34;;;;;;;49.15;24.65;;;;;;;4.84;97.58;101745.88;4942721;28;20162;-82
2022/01/29 02:26:01;;;;;;;37.03;21.30;;;;;;;4.87;98.04;101737.31;4967361;28;20440;-86
2022/01/29 02:28:27;;;;;;;40.45;22.10;;;;;;;4.85;98.34;101746.75;4961050;28;20061;-83
2022/01/29 02:31:02;;;;;;;45.47;22.95;;;;;;;4.87;98.36;101732.13;4989449;28;20512;-82
2022/01/29 02:33:40;;;;;;;44.55;23.17;;;;;;;4.87;98.73;101735.59;4987947;28;20045;-83
2022/01/29 02:36:07;;;;;;;42.25;22.23;;;;;;;4.85;99.15;101728.59;4980978;28;20117;-83
2022/01/29 02:38:35;;;;;;;50.53;22.77;;;;;;;4.85;99.48;101718.22;5006828;28;20101;-84
2022/01/29 02:41:04;;;;;;;42.47;23.48;;;;;;;4.79;99.78;101701.63;4970695;28;20073;-85
2022/01/29 02:43:45;;;;;;;49.53;24.13;;;;;;;4.76;100.00;101709.31;4971391;28;20038;-82
2022/01/29 02:46:48;;;;;;;42.92;23.52;;;;;;;4.74;100.00;101712.69;4986759;28;20131;-84
2022/01/29 02:49:22;;;;;;;45.15;23.10;;;;;;;4.66;100.00;101698.59;4999224;28;20558;-84
2022/01/29 02:52:08;;;;;;;42.63;23.90;;;;;;;4.63;100.00;101687.28;4984175;28;20408;-83
2022/01/29 02:54:35;;;;;;;44.00;21.90;;;;;;;4.62;100.00;101689.84;4980651;28;20141;-84
2022/01/29 02:57:03;;;;;;;40.65;21.88;;;;;;;4.62;100.00;101671.69;4987873;28;20058;-82
2022/01/29 02:59:31;;;;;;;51.08;24.98;;;;;;;4.59;100.00;101669.00;4996214;28;20092;-85
2022/01/29 03:01:57;;;;;;;36.83;21.77;;;;;;;4.56;100.00;101669.78;5003293;28;20139;-83
2022/01/29 03:04:24;;;;;;;38.15;22.42;;;;;;;4.55;100.00;101668.03;4983257;28;20077;-83
2022/01/29 03:06:50;;;;;;;39.85;22.95;;;;;;;4.52;100.00;101660.13;4999400;28;20041;-86
2022/01/29 03:09:17;;;;;;;38.00;22.25;;;;;;;4.51;100.00;101658.38;4981103;28;20111;-82
2022/01/29 03:11:44;;;;;;;37.33;20.38;;;;;;;4.51;100.00;101641.94;4983520;28;20460;-85
2022/01/29 03:14:14;;;;;;;42.38;21.60;;;;;;;4.50;100.00;101647.94;4976532;28;20141;-83
2022/01/29 03:16:42;;;;;;;44.92;22.92;;;;;;;4.50;100.00;101648.84;4976794;28;20073;-85
2022/01/29 03:19:09;;;;;;;41.45;21.13;;;;;;;4.50;100.00;101642.75;4983681;28;20050;-84
2022/01/29 03:21:38;;;;;;;39.13;19.35;;;;;;;4.47;100.00;101633.16;4966228;28;20082;-82
2022/01/29 03:24:05;;;;;;;36.95;21.98;;;;;;;4.47;100.00;101635.75;4981472;28;20053;-83
2022/01/29 03:26:33;;;;;;;36.70;21.45;;;;;;;4.45;100.00;101621.88;4971068;28;20069;-85
2022/01/29 03:29:00;;;;;;;36.58;20.33;;;;;;;4.44;100.00;101620.97;4980415;28;20054;-85
2022/01/29 03:31:31;;;;;;;35.40;19.38;;;;;;;4.44;100.00;101620.97;4951850;28;20060;-85
2022/01/29 03:34:06;;;;;;;32.25;19.20;;;;;;;4.47;100.00;101622.78;4984445;28;21217;-84
2022/01/29 03:36:34;;;;;;;33.40;18.60;;;;;;;4.46;100.00;101601.19;4998606;28;20048;-84
2022/01/29 03:39:01;;;;;;;34.05;18.17;;;;;;;4.51;100.00;101595.25;4985808;28;20065;-83
2022/01/29 03:41:36;;;;;;;31.48;17.75;;;;;;;4.52;100.00;101610.84;4966160;28;20064;-84
2022/01/29 03:44:07;;;;;;;34.50;17.67;;;;;;;4.55;100.00;101605.78;4968103;28;20046;-83
2022/01/29 03:49:17;;;;;;;30.33;16.10;;;;;;;4.56;100.00;101597.19;4982337;28;20413;-82
2022/01/29 03:51:43;;;;;;;33.90;18.67;;;;;;;4.57;100.00;101591.13;4967594;28;20291;-86
2022/01/29 03:54:15;;;;;;;32.67;17.33;;;;;;;4.57;100.00;101579.91;4958814;28;20110;-85
2022/01/29 03:56:42;;;;;;;28.85;18.42;;;;;;;4.59;100.00;101596.41;4993627;28;20049;-84
2022/01/29 03:59:08;;;;;;;25.23;16.20;;;;;;;4.59;100.00;101581.69;4991908;28;20129;-85
2022/01/29 04:01:35;;;;;;;29.42;16.48;;;;;;;4.57;100.00;101578.16;4998734;28;20049;-85
2022/01/29 04:04:07;;;;;;;29.52;17.70;;;;;;;4.56;100.00;101573.84;4980701;28;20476;-84
2022/01/29 04:06:34;;;;;;;27.40;16.25;;;;;;;4.55;100.00;101563.41;4979440;28;20663;-86
2022/01/29 04:09:10;;;;;;;28.40;17.00;;;;;;;4.57;100.00;101553.97;4981715;28;20058;-84
2022/01/29 04:11:40;;;;;;;29.80;17.45;;;;;;;4.58;100.00;101554.00;4989153;28;20097;-83
2022/01/29 04:14:15;;;;;;;30.17;17.70;;;;;;;4.62;100.00;101550.66;4976070;28;20056;-85
2022/01/29 04:16:42;;;;;;;28.45;16.17;;;;;;;4.62;100.00;101554.97;4993445;28;20038;-85
2022/01/29 04:19:08;;;;;;;29.42;17.80;;;;;;;4.65;100.00;101539.50;4969049;28;20045;-82
2022/01/29 04:21:35;;;;;;;33.33;17.98;;;;;;;4.67;100.00;101548.22;4989946;28;20049;-84
2022/01/29 04:24:02;;;;;;;28.52;17.38;;;;;;;4.70;100.00;101526.69;4970460;28;20049;-83
2022/01/29 04:26:33;;;;;;;31.85;17.50;;;;;;;4.74;100.00;101541.50;4964786;28;20445;-85
2022/01/29 04:29:02;;;;;;;30.63;17.77;;;;;;;4.78;100.00;101525.19;4974352;28;20061;-84
2022/01/29 04:31:37;;;;;;;30.05;16.90;;;;;;;4.81;100.00;101512.31;4966312;28;20054;-84
2022/01/29 04:34:04;;;;;;;28.80;17.88;;;;;;;4.76;100.00;101514.78;4971699;28;20074;-85
2022/01/29 04:36:31;;;;;;;29.38;16.73;;;;;;;4.75;100.00;101505.22;4967114;28;20049;-83
2022/01/29 04:38:57;;;;;;;31.35;18.88;;;;;;;4.77;100.00;101502.66;4955348;28;20049;-83
2022/01/29 04:41:24;;;;;;;28.70;17.73;;;;;;;4.76;100.00;101495.75;4986416;28;20054;-84
2022/01/29 04:43:50;;;;;;;37.60;18.45;;;;;;;4.76;100.00;101494.03;4948822;28;20061;-82
2022/01/29 04:46:17;;;;;;;29.80;16.60;;;;;;;4.78;100.00;101470.72;4971312;28;20064;-85
2022/01/29 04:48:45;;;;;;;31.05;18.42;;;;;;;4.79;100.00;101477.66;4952346;28;20050;-85
2022/01/29 04:51:11;;;;;;;32.38;17.90;;;;;;;4.80;100.00;101475.09;4971607;28;20054;-86
2022/01/29 04:53:40;;;;;;;29.45;17.48;;;;;;;4.86;100.00;101468.34;4970636;28;20047;-85
2022/01/29 04:56:08;;;;;;;29.15;17.85;;;;;;;4.89;100.00;101473.59;4965728;28;20088;-83
2022/01/29 04:58:35;;;;;;;28.08;16.67;;;;;;;4.90;100.00;101444.22;4972807;28;20102;-83
2022/01/29 05:01:02;;;;;;;28.52;18.83;;;;;;;4.92;100.00;101442.56;4951122;28;21399;-85
2022/01/29 05:03:29;;;;;;;29.63;18.08;;;;;;;4.90;100.00;101439.94;4969846;28;20062;-84
2022/01/29 05:05:56;;;;;;;29.50;17.55;;;;;;;4.94;100.00;101431.38;4986655;28;20054;-84
2022/01/29 05:08:23;;;;;;;32.92;18.42;;;;;;;4.98;100.00;101434.94;4964663;28;20517;-85
2022/01/29 05:10:50;;;;;;;31.25;18.02;;;;;;;4.97;100.00;101430.59;4971032;28;20046;-84
2022/01/29 05:13:21;;;;;;;27.48;15.38;;;;;;;4.99;100.00;101428.03;4966807;28;20046;-84
2022/01/29 05:16:01;;;;;;;27.08;17.17;;;;;;;5.00;100.00;101403.84;4971121;28;20046;-84
2022/01/29 05:26:54;;;;;;;27.67;15.80;;;;;;;5.10;100.00;101395.47;4966403;28;20440;-85
2022/01/29 05:29:22;;;;;;;27.33;17.38;;;;;;;5.07;100.00;101410.94;4970100;28;20050;-84
2022/01/29 05:31:51;;;;;;;30.30;15.40;;;;;;;5.07;100.00;101404.03;4966201;28;20394;-84
2022/01/29 05:34:20;;;;;;;25.52;15.90;;;;;;;5.10;100.00;101409.31;4974147;28;20491;-84
2022/01/29 05:36:48;;;;;;;29.52;17.60;;;;;;;5.08;100.00;101412.69;4957077;28;20050;-83
2022/01/29 05:39:15;;;;;;;25.85;15.70;;;;;;;5.11;100.00;101415.34;4972575;28;20132;-82
2022/01/29 05:41:42;;;;;;;31.75;18.30;;;;;;;5.11;100.00;101392.91;4974978;28;20299;-83
2022/01/29 05:44:09;;;;;;;29.25;15.60;;;;;;;5.14;100.00;101398.16;4970284;28;20421;-84
2022/01/29 05:46:36;;;;;;;26.05;15.57;;;;;;;5.13;100.00;101395.53;4991369;28;20053;-84
2022/01/29 05:49:03;;;;;;;32.67;16.58;;;;;;;5.16;100.00;101392.13;4976797;28;20050;-83
2022/01/29 05:51:30;;;;;;;27.08;16.63;;;;;;;5.17;100.00;101389.56;4975668;28;20610;-83
2022/01/29 05:54:02;;;;;;;29.10;16.77;;;;;;;5.18;100.00;101391.34;4973649;28;20057;-84
2022/01/29 05:56:30;;;;;;;23.92;16.58;;;;;;;5.19;100.00;101387.91;4970636;28;20053;-82
2022/01/29 05:58:57;;;;;;;24.10;15.95;;;;;;;5.20;100.00;101374.09;4977031;28;20050;-84
2022/01/29 06:01:27;;;;;;;23.55;14.50;;;;;;;5.24;100.00;101377.63;4968064;28;20054;-85
2022/01/29 06:03:57;;;;;;;27.33;16.13;;;;;;;5.27;100.00;101373.38;4974679;28;20054;-83
2022/01/29 06:06:23;;;;;;;23.45;14.80;;;;;;;5.34;100.00;101373.53;4975690;28;20455;-84
2022/01/29 06:08:50;;;;;;;26.08;15.10;;;;;;;5.33;100.00;101383.03;4972935;28;20050;-86
2022/01/29 06:11:17;;;;;;;21.70;15.35;;;;;;;5.35;100.00;101376.16;4982084;28;20043;-85
2022/01/29 06:13:45;;;;;;;21.92;15.20;;;;;;;5.38;100.00;101370.19;4954197;28;20447;-84
2022/01/29 06:16:12;;;;;;;21.38;13.63;;;;;;;5.41;100.00;101358.16;4972601;28;20050;-85
2022/01/29 06:18:40;;;;;;;24.00;13.93;;;;;;;5.46;100.00;101361.72;4974089;28;20046;-85
2022/01/29 06:21:09;;;;;;;21.77;14.85;;;;;;;5.46;100.00;101368.63;4968014;28;20290;-84
2022/01/29 06:23:37;;;;;;;24.70;13.75;;;;;;;5.49;100.00;101373.00;4967945;28;20078;-85
2022/01/29 06:26:09;;;;;;;19.10;13.13;;;;;;;5.51;100.00;101376.53;4965688;28;20046;-85
2022/01/29 06:28:36;;;;;;;20.02;13.80;;;;;;;5.51;100.00;101363.56;4952545;28;20056;-85
2022/01/29 06:31:05;;;;;;;20.40;13.70;;;;;;;5.52;100.00;101362.72;4972634;28;20049;-83
2022/01/29 06:33:32;;;;;;;20.58;13.98;;;;;;;5.53;100.00;101357.56;4987328;28;20064;-85
2022/01/29 06:35:58;;;;;;;20.38;13.98;;;;;;;5.56;100.00;101359.34;4978382;28;20180;-85
2022/01/29 06:38:25;;;;;;;23.83;16.05;;;;;;;5.57;100.00;101350.72;4956541;28;20057;-85
2022/01/29 06:40:52;;;;;;;22.60;13.70;;;;;;;5.56;100.00;101343.75;4979912;28;20056;-84
2022/01/29 06:43:19;;;;;;;21.42;13.82;;;;;;;5.58;100.00;101355.03;4978532;28;20038;-85
2022/01/29 06:45:47;;;;;;;20.90;15.20;;;;;;;5.57;100.00;101345.53;4993048;28;20099;-83
2022/01/29 06:48:16;;;;;;;25.02;15.65;;;;;;;5.56;100.00;101331.66;4996766;28;20042;-83
2022/01/29 06:50:44;;;;;;;22.90;15.18;;;;;;;5.58;100.00;101329.06;4991508;28;20050;-84
2022/01/29 06:53:11;;;;;;;24.70;15.88;;;;;;;5.59;100.00;101331.72;4980487;28;20050;-83
2022/01/29 06:55:38;;;;;;;23.58;14.63;;;;;;;5.62;100.00;101326.59;5001395;28;20053;-84
2022/01/29 06:58:05;;;;;;;21.60;15.55;;;;;;;5.63;100.00;101330.06;4990481;28;20057;-85
2022/01/29 07:00:32;;;;;;;23.40;15.77;;;;;;;5.65;100.00;101319.72;4962470;28;20041;-83
2022/01/29 07:03:03;;;;;;;22.95;14.88;;;;;;;5.67;100.00;101331.91;4963603;28;20152;-84
2022/01/29 07:05:30;;;;;;;24.67;14.80;;;;;;;5.65;100.00;101323.19;4984294;28;20129;-83
2022/01/29 07:07:56;;;;;;;24.42;15.35;;;;;;;5.67;100.00;101320.63;4979226;28;20057;-85
2022/01/29 07:10:24;;;;;;;23.95;14.73;;;;;;;5.69;100.00;101321.53;4995758;28;20049;-83
2022/01/29 07:12:52;;;;;;;25.17;15.48;;;;;;;5.68;100.00;101327.56;4970036;28;20052;-84
2022/01/29 07:15:19;;;;;;;23.38;14.50;;;;;;;5.70;100.00;101326.75;5001474;28;20053;-84
2022/01/29 07:17:46;;;;;;;23.48;15.93;;;;;;;5.72;100.00;101317.28;4985174;28;20046;-83
2022/01/29 07:20:13;;;;;;;26.05;17.95;;;;;;;5.74;100.00;101310.41;4981911;28;20057;-84
2022/01/29 07:22:40;;;;;;;21.83;16.00;;;;;;;5.75;100.00;101301.75;4991252;28;20046;-84
2022/01/29 07:25:08;;;;;;;27.67;15.70;;;;;;;5.75;100.00;101293.06;4979059;28;20050;-83
2022/01/29 07:27:35;;;;;;;24.70;14.68;;;;;;;5.75;100.00;101293.06;4990609;28;20060;-83
2022/01/29 07:30:02;;;;;;;22.15;14.45;;;;;;;5.78;100.00;101301.81;4993213;28;20778;-83
2022/01/29 07:32:33;;;;;;;24.73;15.10;;;;;;;5.82;100.00;101299.31;4962366;28;20675;-84
2022/01/29 07:35:04;;;;;;;22.13;15.18;;;;;;;5.82;100.00;101304.50;4953284;28;20046;-83
2022/01/29 07:37:31;;;;;;;28.25;16.02;;;;;;;5.81;100.00;101295.81;4994272;28;20037;-83
2022/01/29 07:40:00;;;;;;;23.45;14.73;;;;;;;5.84;100.00;101302.78;4969047;28;20038;-84
2022/01/29 07:42:26;;;;;;;23.58;16.02;;;;;;;5.82;100.00;101284.56;4973713;28;20068;-84
2022/01/29 07:44:53;;;;;;;24.90;14.80;;;;;;;5.86;100.00;101272.53;4986114;28;20116;-85
2022/01/29 07:47:20;;;;;;;21.17;14.23;;;;;;;5.83;100.00;101270.75;4987326;28;20097;-83
2022/01/29 07:49:47;;;;;;;22.90;15.50;;;;;;;5.87;100.00;101271.69;4972526;28;20123;-84
2022/01/29 07:52:14;;;;;;;25.52;14.30;;;;;;;5.88;100.00;101274.31;4968188;28;20077;-84
2022/01/29 07:54:41;;;;;;;20.25;13.70;;;;;;;5.90;100.00;101258.75;4967770;28;20046;-83
2022/01/29 07:57:07;;;;;;;21.52;13.93;;;;;;;5.93;100.00;101261.41;4967719;28;20073;-83
2022/01/29 07:59:34;;;;;;;21.83;13.18;;;;;;;5.99;100.00;101279.75;4971539;28;20075;-86
2022/01/29 08:02:01;;;;;;;19.73;13.13;;;;;;;6.00;100.00;101275.41;4970440;28;20568;-85
2022/01/29 08:04:28;;;;;;;19.38;12.95;;;;;;;5.99;100.00;101264.16;4979873;28;20152;-85
2022/01/29 08:06:54;;;;;;;20.88;12.65;;;;;;;6.01;100.00;101261.59;4972598;28;20046;-84
2022/01/29 08:09:21;;;;;;;24.48;13.98;;;;;;;6.06;100.00;101266.06;4964368;28;20061;-85
2022/01/29 08:11:47;;;;;;;17.63;12.35;;;;;;;6.05;100.00;101259.09;4951106;28;20049;-84
2022/01/29 08:14:15;;;;;;;18.73;12.52;;;;;;;6.07;100.00;101266.91;4967985;28;20077;-85
2022/01/29 08:16:42;;;;;;;16.40;12.38;;;;;;;6.08;100.00;101261.75;4967402;28;20038;-85
2022/01/29 08:19:09;;;;;;;16.45;11.90;;;;;;;6.10;100.00;101262.66;4954943;28;20057;-86
2022/01/29 08:21:38;;;;;;;17.60;11.60;;;;;;;6.17;100.00;101249.78;4983912;28;20046;-85
2022/01/29 08:24:07;;;;;;;16.75;11.50;;;;;;;6.22;100.00;101255.91;4977478;28;20057;-86
2022/01/29 08:26:35;;;;;;;16.92;12.00;;;;;;;6.22;100.00;101246.41;4958583;28;20053;-85
2022/01/29 08:29:02;;;;;;;20.20;11.35;;;;;;;6.24;100.00;101255.09;4977769;28;20055;-84
2022/01/29 08:31:30;;;;;;;15.77;11.55;;;;;;;6.29;100.00;101253.47;4979165;28;20129;-84
2022/01/29 08:34:01;;;;;;;17.75;11.93;;;;;;;6.30;100.00;101249.16;4974135;28;20041;-84
2022/01/29 08:36:29;;;;;;;17.45;11.23;;;;;;;6.33;100.00;101258.75;5002931;28;20029;-85
2022/01/29 08:38:56;;;;;;;19.02;12.55;;;;;;;6.30;100.00;101256.94;4971344;28;20054;-85
2022/01/29 08:41:22;;;;;;;18.63;11.57;;;;;;;6.33;100.00;101258.75;5003797;28;20049;-84
2022/01/29 08:43:49;;;;;;;21.48;12.80;;;;;;;6.39;100.00;101249.31;5002624;28;20106;-84
2022/01/29 08:46:16;;;;;;;19.65;12.55;;;;;;;6.41;100.00;101251.94;4971022;28;20057;-85
2022/01/29 08:48:43;;;;;;;19.60;11.70;;;;;;;6.38;100.00;101239.75;5004224;28;20139;-86
2022/01/29 08:51:10;;;;;;;18.80;11.40;;;;;;;6.43;100.00;101243.31;4985246;28;20056;-85
2022/01/29 08:53:37;;;;;;;19.63;11.90;;;;;;;6.44;100.00;101238.97;4996721;28;20702;-84
2022/01/29 08:56:06;;;;;;;19.20;11.27;;;;;;;6.48;100.00;101243.41;4976531;28;20058;-86
2022/01/29 08:58:35;;;;;;;16.73;11.25;;;;;;;6.45;100.00;101213.03;4990061;28;20133;-84
2022/01/29 09:01:03;;;;;;;19.33;13.40;;;;;;;6.49;100.00;101229.53;4979898;28;20042;-84
2022/01/29 09:03:30;;;;;;;19.90;11.55;;;;;;;6.48;100.00;101206.09;4975538;28;20097;-85
2022/01/29 09:05:56;;;;;;;16.27;10.70;;;;;;;6.49;100.00;101213.94;4996183;28;20143;-85
2022/01/29 09:08:23;;;;;;;17.45;10.77;;;;;;;6.52;100.00;101221.81;4975692;28;20129;-86
2022/01/29 09:10:56;;;;;;;15.02;10.02;;;;;;;6.56;100.00;101220.13;4967283;28;20100;-84
2022/01/29 09:13:23;;;;;;;16.80;9.75;;;;;;;6.55;100.00;101202.75;4990470;28;20053;-84
2022/01/29 09:15:50;;;;;;;19.73;10.73;;;;;;;6.57;100.00;101201.06;4986115;28;20198;-85
2022/01/29 09:18:17;;;;;;;18.25;10.00;;;;;;;6.59;100.00;101188.97;4992097;28;20050;-84
2022/01/29 09:20:44;;;;;;;15.68;9.95;;;;;;;6.64;100.00;101199.44;4980869;28;20492;-84
2022/01/29 09:23:11;;;;;;;17.90;9.73;;;;;;;6.67;100.00;101194.28;4976819;28;20050;-85
2022/01/29 09:25:39;;;;;;;16.90;10.27;;;;;;;6.75;100.00;101195.28;4999528;28;20049;-86
2022/01/29 09:28:07;;;;;;;20.58;10.25;;;;;;;6.77;100.00;101211.78;4983286;28;20040;-85
2022/01/29 09:30:35;;;;;;;14.90;8.85;;;;;;;6.78;100.00;101217.00;5006339;28;20163;-85
2022/01/29 09:33:02;;;;;;;15.73;10.10;;;;;;;6.80;100.00;101214.44;4985701;28;20050;-85
2022/01/29 09:35:32;;;;;;;15.48;10.27;;;;;;;6.83;100.00;101208.41;5000213;28;20030;-86
2022/01/29 09:37:58;;;;;;;16.10;9.52;;;;;;;6.82;100.00;101201.44;4993761;28;20042;-85
2022/01/29 09:40:25;;;;;;;14.40;9.10;;;;;;;6.85;100.00;101198.91;4990990;28;20046;-85
2022/01/29 09:42:52;;;;;;;15.25;9.07;;;;;;;6.83;100.00;101164.16;4981118;28;20352;-84
2022/01/29 09:45:23;;;;;;;16.77;10.32;;;;;;;6.84;100.00;101195.41;4983011;28;20050;-84
2022/01/29 09:48:01;;;;;;;12.95;8.95;;;;;;;6.87;100.00;101191.97;4998744;28;20122;-86
2022/01/29 09:50:27;;;;;;;14.43;8.43;;;;;;;6.85;100.00;101191.97;4980561;28;20061;-86
2022/01/29 09:52:54;;;;;;;14.30;8.27;;;;;;;6.88;100.00;101186.81;4977931;28;20038;-84
2022/01/29 09:55:21;;;;;;;14.60;9.40;;;;;;;6.94;100.00;101179.06;4982301;28;20049;-82
2022/01/29 09:57:48;;;;;;;11.48;8.23;;;;;;;6.99;100.00;101176.56;4979567;28;20054;-84
2022/01/29 10:00:15;;;;;;;14.93;8.38;;;;;;;7.05;100.00;101180.97;4973066;28;20038;-85
2022/01/29 10:02:42;;;;;;;13.32;8.45;;;;;;;7.02;100.00;101184.38;4972226;28;20046;-84
2022/01/29 10:05:11;;;;;;;13.65;8.35;;;;;;;7.08;100.00;101175.81;4970029;28;20050;-85
2022/01/29 10:07:39;;;;;;;11.18;7.65;;;;;;;7.14;100.00;101181.09;4962292;28;22388;-83
2022/01/29 10:10:19;;;;;;;12.55;7.75;;;;;;;7.16;100.00;101165.47;4977833;28;20046;-85
2022/01/29 10:12:46;;;;;;;12.05;7.28;;;;;;;7.16;100.00;101163.75;4987014;28;20058;-84
2022/01/29 10:15:12;;;;;;;12.55;7.43;;;;;;;7.22;100.00;101147.34;4981100;28;20143;-85
2022/01/29 10:17:45;;;;;;;13.98;7.70;;;;;;;7.28;100.00;101150.03;4992940;28;20981;-85
2022/01/29 10:20:13;;;;;;;10.40;6.78;;;;;;;7.29;100.00;101155.25;4981210;28;20046;-84
2022/01/29 10:22:41;;;;;;;8.90;6.35;;;;;;;7.33;100.00;101150.97;5001092;28;20107;-85
2022/01/29 10:25:15;;;;;;;9.65;6.18;;;;;;;7.36;100.00;101142.31;4994108;28;20469;-85
2022/01/29 10:28:14;;;;;;;14.23;8.50;;;;;;;7.39;100.00;101138.03;5000741;28;20100;-84
2022/01/29 10:30:51;;;;;;;7.40;5.47;;;;;;;7.44;100.00;101128.53;4994165;28;20492;-85
2022/01/29 10:33:42;;;;;;;7.82;5.80;;;;;;;7.48;100.00;101125.94;4998171;28;20346;-86
2022/01/29 10:39:30;;;;;;;7.13;4.97;;;;;;;7.51;100.00;101111.22;4994820;28;21920;-84
2022/01/29 10:41:57;;;;;;;4.80;4.28;;;;;;;7.49;100.00;101107.72;4994096;28;20121;-85
2022/01/29 10:44:24;;;;;;;7.05;5.43;;;;;;;7.53;100.00;101116.47;4982073;28;20073;-86
2022/01/29 10:46:57;;;;;;;6.45;4.47;;;;;;;7.53;100.00;101104.28;4978866;28;20046;-84
2022/01/29 10:49:35;;;;;;;7.57;5.40;;;;;;;7.56;100.00;101098.25;4977620;28;20154;-84
2022/01/29 10:52:13;;;;;;;6.47;4.32;;;;;;;7.59;100.00;101086.13;4977315;28;20057;-84
2022/01/29 10:54:52;;;;;;;6.15;4.22;;;;;;;7.62;100.00;101082.69;4963798;28;20124;-85
2022/01/29 10:57:19;;;;;;;6.93;4.90;;;;;;;7.65;100.00;101066.19;4990292;28;20081;-87
2022/01/29 10:59:52;;;;;;;4.38;3.78;;;;;;;7.69;100.00;101075.78;4999814;28;20058;-84
2022/01/29 11:02:24;;;;;;;5.10;4.00;;;;;;;7.68;100.00;101084.47;5008969;28;20048;-85
2022/01/29 11:04:51;;;;;;;5.50;4.10;;;;;;;7.75;100.00;101073.25;4996887;28;20054;-84
2022/01/29 11:07:19;;;;;;;4.22;3.83;;;;;;;7.77;100.00;101063.72;4991072;28;20168;-86
2022/01/29 11:09:50;;;;;;;5.07;4.57;;;;;;;7.84;100.00;101070.72;5012563;28;20126;-83
2022/01/29 11:12:23;;;;;;;4.90;4.35;;;;;;;7.87;99.45;101041.22;5010203;28;20084;-82
2022/01/29 11:14:53;;;;;;;4.63;3.80;;;;;;;7.88;99.40;101063.81;5011921;28;20069;-85
2022/01/29 11:17:20;;;;;;;4.35;3.38;;;;;;;7.92;99.34;101053.41;4975672;28;20976;-85
2022/01/29 11:19:48;;;;;;;4.80;3.75;;;;;;;8.00;98.82;101042.19;4980239;28;20169;-83
2022/01/29 11:22:23;;;;;;;4.35;3.95;;;;;;;8.13;98.69;101048.38;5001611;28;20045;-83
2022/01/29 11:25:00;;;;;;;6.13;4.03;;;;;;;8.27;97.46;101025.88;4964860;28;20058;-84
2022/01/29 11:27:32;;;;;;;3.42;3.08;;;;;;;8.38;96.67;101021.59;4983502;28;20440;-84
2022/01/29 11:30:12;;;;;;;3.70;2.75;;;;;;;8.47;96.13;101009.50;5000626;28;20056;-85
2022/01/29 11:32:47;;;;;;;5.15;3.88;;;;;;;8.44;95.74;100994.66;4968666;28;20050;-84
2022/01/29 11:35:30;;;;;;;4.28;3.88;;;;;;;8.42;96.28;100994.66;4982303;28;20065;-84
2022/01/29 11:38:03;;;;;;;6.15;4.20;;;;;;;8.35;96.56;100992.88;4989998;28;20046;-82
2022/01/29 11:40:57;;;;;;;4.10;3.50;;;;;;;8.34;96.65;100975.47;4992859;28;20046;-83
2022/01/29 11:43:34;;;;;;;4.15;3.72;;;;;;;8.35;96.96;100963.31;4988885;28;20050;-83
2022/01/29 11:46:30;;;;;;;3.70;3.22;;;;;;;8.37;97.12;100956.34;4978145;28;20041;-84
2022/01/29 11:48:58;;;;;;;3.90;3.42;;;;;;;8.36;97.25;100946.81;4971475;28;20050;-85
2022/01/29 11:51:49;;;;;;;4.93;4.03;;;;;;;8.29;97.96;100932.84;4979183;28;20053;-86
2022/01/29 11:54:26;;;;;;;5.45;3.72;;;;;;;8.25;97.96;100934.59;4976111;28;20108;-85
2022/01/29 11:57:14;;;;;;;5.60;4.07;;;;;;;8.24;98.60;100922.41;4971807;28;20050;-85
2022/01/29 11:59:41;;;;;;;7.25;4.57;;;;;;;8.25;98.68;100911.09;4978093;28;20052;-83